الصفحة الرئيسية
METAR-TAF:

METAR-TAF

مطار :

مطار سيدني

سيدني, أستراليا

دائرة عرض: 33-57S, خط طول: 151-11E, ارتفاع: 6 متر

مراقبة الطقس الحالي

تاريخ ووقت الإصدار 30 دقيقة قبل الساعة 03:30UTC
ريح 10 عقدة من الجنوب/الجنوب الشرقي
درجة الحرارة 20°درجة مئوية
الرطوبة 53%
ضغط 1018 hPa
الرؤية 10 كم أو أكثر
غيوم قليلة على ارتفاع 4500 قدم

METAR: YSSY 250330Z 15010KT 9999 FEW045 20/10 Q1018

زمن: 14:00 (04:00 UTC)

توقعات

تاريخ ووقت الإصدار 1ساعة و 54 دقيقة قبل الساعة 02:06UTC
التوقعات صالحة من25 الساعة 03 UTC إلى 26 الساعة 06 UTC
ريح 14 عقدة من الجنوب/الجنوب الشرقي
الرؤية 10 كم أو أكثر
الغيوم لا تقل 1500 م ولا وجود لمزنة ركامية السحاب الأسود
من 25 الساعة 1200 UTC
ريح 6 عقدة من الغرب
الرؤية 10 كم أو أكثر
غيوم قليلة على ارتفاع 3500 قدم
من 25 الساعة 2300 UTC
ريح 14 عقدة من الجنوب
الرؤية 10 كم أو أكثر
الغيوم لا تقل 1500 م ولا وجود لمزنة ركامية السحاب الأسود

TAF: YSSY 250206Z 2503/2606 16014KT CAVOK FM251200 27006KT 9999 FEW035 FM252300 18014KT CAVOK

أرصاد الطقس والتوقعات من أكثر من 4000 مطار (تقارير الطقس للمطار METAR والتنبؤ بالطقس بالمطارTAF).

المحطات المتاحة هي النقط الصفراء والحمراء على الخريطة.

حرك المؤشر فوق النقطة لمعرفة اسم المحطة.

ثم انقر لمعرفة أرصاد وتوقعات الطقس.

لتغيير الخارطة: اضغط على الأزرار الخضراء مع رمز الصليب الأسود للتكبير. على الزر الأخضر مع شرطة للتصغير، أو على الأسهم الخضراء للخرائط المجاورة.


METAR-TAF: